createdAt,value
2019-04-25T00:02:19.280Z,99.90
2019-04-25T00:05:13.225Z,99.90
2019-04-25T00:08:03.589Z,99.90
2019-04-25T00:10:53.461Z,99.90
2019-04-25T00:13:44.090Z,99.90
2019-04-25T00:16:37.119Z,99.90
2019-04-25T00:19:26.979Z,99.90
2019-04-25T00:22:34.840Z,99.90
2019-04-25T00:25:45.841Z,99.90
2019-04-25T00:28:35.621Z,99.90
2019-04-25T00:31:26.112Z,99.90
2019-04-25T00:34:17.040Z,99.90
2019-04-25T00:37:07.281Z,99.90
2019-04-25T00:39:59.160Z,99.90
2019-04-25T00:42:48.820Z,99.90
2019-04-25T00:45:38.283Z,99.90
2019-04-25T00:48:28.640Z,99.90
2019-04-25T00:51:19.349Z,99.90
2019-04-25T00:54:09.239Z,99.90
2019-04-25T00:56:59.132Z,99.90
2019-04-25T00:59:57.438Z,99.90
2019-04-25T01:02:49.463Z,99.90
2019-04-25T01:05:39.560Z,99.90
2019-04-25T01:08:31.862Z,99.90
2019-04-25T01:11:22.006Z,99.90
2019-04-25T01:14:12.013Z,99.90
2019-04-25T01:17:02.500Z,99.90
2019-04-25T01:19:54.825Z,99.90
2019-04-25T01:22:45.665Z,99.90
2019-04-25T01:25:40.916Z,99.90
2019-04-25T01:28:27.783Z,99.90
2019-04-25T01:31:20.694Z,99.90
2019-04-25T01:34:14.141Z,99.90
2019-04-25T01:37:14.142Z,99.90
2019-04-25T01:40:29.620Z,99.90
2019-04-25T01:43:45.040Z,99.90
2019-04-25T01:46:36.228Z,99.90
2019-04-25T01:49:26.500Z,99.90
2019-04-25T01:52:16.728Z,99.90
2019-04-25T01:59:17.852Z,99.90
2019-04-25T02:02:10.158Z,99.90
2019-04-25T02:05:00.258Z,99.90
2019-04-25T02:07:51.540Z,99.90
2019-04-25T02:10:43.998Z,99.90
2019-04-25T02:13:35.799Z,99.90
2019-04-25T02:16:26.313Z,99.90
2019-04-25T02:19:16.743Z,99.90
2019-04-25T02:22:06.833Z,99.90
2019-04-25T02:24:58.287Z,99.90
2019-04-25T02:27:48.379Z,99.90
2019-04-25T02:30:38.816Z,99.90
2019-04-25T02:33:29.042Z,99.90
2019-04-25T02:36:19.278Z,99.90
2019-04-25T02:39:18.993Z,99.90
2019-04-25T02:42:09.353Z,99.90
2019-04-25T02:45:09.212Z,99.90
2019-04-25T02:48:18.331Z,99.90
2019-04-25T02:51:26.822Z,99.90
2019-04-25T02:54:17.034Z,99.90
2019-04-25T02:57:08.344Z,99.90
2019-04-25T02:59:58.543Z,99.90
2019-04-25T03:02:48.445Z,99.90
2019-04-25T03:05:39.050Z,99.90
2019-04-25T03:08:29.543Z,99.90
2019-04-25T03:11:20.088Z,99.90
2019-04-25T03:14:10.634Z,99.90
2019-04-25T03:17:04.288Z,99.90
2019-04-25T03:20:12.656Z,99.90
2019-04-25T03:23:14.430Z,99.90
2019-04-25T03:26:06.141Z,99.90
2019-04-25T03:28:56.899Z,99.90
2019-04-25T03:31:46.652Z,99.90
2019-04-25T03:34:37.532Z,99.90
2019-04-25T03:37:27.691Z,99.90
2019-04-25T03:40:18.071Z,99.90
2019-04-25T03:43:08.768Z,99.90
2019-04-25T03:45:59.331Z,99.90
2019-04-25T03:48:49.696Z,99.90
2019-04-25T03:51:40.072Z,99.90
2019-04-25T03:54:30.212Z,99.90
2019-04-25T03:57:20.408Z,99.90
2019-04-25T04:00:10.886Z,99.90
2019-04-25T04:03:01.531Z,99.90
2019-04-25T04:05:51.712Z,99.90
2019-04-25T04:08:42.018Z,99.90
2019-04-25T04:11:33.666Z,99.90
2019-04-25T04:14:24.735Z,99.90
2019-04-25T04:17:36.089Z,99.90
2019-04-25T04:20:36.931Z,99.90
2019-04-25T04:23:48.571Z,99.90
2019-04-25T04:26:38.646Z,99.90
2019-04-25T04:29:29.273Z,99.90
2019-04-25T04:32:19.811Z,99.90
2019-04-25T04:35:10.747Z,99.90
2019-04-25T04:38:00.991Z,99.90
2019-04-25T04:40:51.011Z,99.90
2019-04-25T04:43:40.571Z,99.90
2019-04-25T04:46:30.631Z,99.90
2019-04-25T04:49:20.871Z,99.90
2019-04-25T04:52:10.712Z,99.90
2019-04-25T04:55:06.453Z,99.90
2019-04-25T04:57:54.281Z,99.90
2019-04-25T05:00:44.353Z,99.90
2019-04-25T05:03:44.411Z,99.90
2019-04-25T05:06:50.977Z,99.90
2019-04-25T05:09:43.444Z,99.90
2019-04-25T05:12:33.932Z,99.90
2019-04-25T05:15:24.868Z,99.90
2019-04-25T05:18:25.264Z,99.90
2019-04-25T05:21:06.953Z,99.90
2019-04-25T05:23:56.354Z,99.90
2019-04-25T05:26:46.812Z,99.90
2019-04-25T05:29:37.371Z,99.90
2019-04-25T05:32:27.349Z,99.90
2019-04-25T05:35:17.797Z,99.90
2019-04-25T05:38:07.271Z,99.90
2019-04-25T05:41:01.851Z,99.90
2019-04-25T05:43:51.571Z,99.90
2019-04-25T05:46:41.452Z,99.90
2019-04-25T05:49:32.255Z,99.90
2019-04-25T05:52:24.314Z,99.90
2019-04-25T05:55:16.281Z,99.90
2019-04-25T05:58:05.831Z,99.90
2019-04-25T06:00:56.731Z,99.90
2019-04-25T06:03:46.661Z,99.90
2019-04-25T06:06:37.211Z,99.90
2019-04-25T06:09:48.979Z,99.90
2019-04-25T06:12:48.152Z,99.90
2019-04-25T06:15:38.251Z,99.90
2019-04-25T06:18:46.187Z,99.90
2019-04-25T06:21:35.612Z,99.90
2019-04-25T06:24:44.400Z,99.90
2019-04-25T06:27:38.873Z,99.90
2019-04-25T06:30:31.695Z,99.90
2019-04-25T06:33:23.677Z,99.90
2019-04-25T06:36:13.988Z,99.90
2019-04-25T06:39:05.235Z,99.90
2019-04-25T06:41:55.351Z,99.90
2019-04-25T06:45:03.597Z,99.90
2019-04-25T06:48:10.351Z,99.90
2019-04-25T06:51:00.215Z,99.90
2019-04-25T06:53:50.433Z,99.90
2019-04-25T06:56:40.235Z,99.90
2019-04-25T06:59:30.651Z,99.90
2019-04-25T07:02:22.736Z,99.90
2019-04-25T07:05:25.829Z,99.90
2019-04-25T07:08:06.811Z,99.90
2019-04-25T07:10:56.253Z,99.90
2019-04-25T07:13:47.071Z,99.90
2019-04-25T07:16:37.312Z,99.90
2019-04-25T07:19:28.309Z,99.90
2019-04-25T07:22:19.296Z,99.90
2019-04-25T07:25:13.192Z,99.90
2019-04-25T07:28:39.752Z,99.90
2019-04-25T07:31:53.577Z,99.90
2019-04-25T07:34:44.232Z,99.90
2019-04-25T07:37:37.190Z,99.90
2019-04-25T07:40:27.378Z,99.90
2019-04-25T07:43:18.154Z,99.90
2019-04-25T07:46:09.513Z,98.70
2019-04-25T07:48:59.211Z,96.60
2019-04-25T07:51:49.710Z,95.30
2019-04-25T07:54:39.231Z,92.30
2019-04-25T07:57:29.761Z,90.80
2019-04-25T08:00:20.892Z,91.20
2019-04-25T08:03:10.811Z,91.30
2019-04-25T08:06:03.067Z,90.00
2019-04-25T08:08:54.593Z,85.30
2019-04-25T08:11:44.731Z,83.70
2019-04-25T08:14:48.791Z,82.60
2019-04-25T08:18:16.025Z,83.50
2019-04-25T08:21:06.971Z,84.70
2019-04-25T08:23:57.519Z,84.80
2019-04-25T08:26:48.240Z,81.80
2019-04-25T08:29:39.749Z,82.40
2019-04-25T08:32:30.858Z,77.30
2019-04-25T08:35:20.731Z,76.30
2019-04-25T08:38:10.973Z,75.20
2019-04-25T08:41:01.211Z,74.60
2019-04-25T08:43:51.451Z,72.30
2019-04-25T08:46:43.820Z,71.40
2019-04-25T08:49:42.938Z,70.80
2019-04-25T08:52:35.137Z,64.30
2019-04-25T08:55:58.811Z,60.50
2019-04-25T08:59:10.374Z,56.90
2019-04-25T09:02:23.370Z,52.20
2019-04-25T09:05:21.551Z,49.40
2019-04-25T09:08:11.099Z,47.80
2019-04-25T09:11:01.051Z,44.20
2019-04-25T09:13:53.604Z,42.00
2019-04-25T09:16:45.143Z,40.10
2019-04-25T09:19:54.311Z,39.60
2019-04-25T09:22:45.584Z,38.50
2019-04-25T09:25:35.861Z,37.10
2019-04-25T09:28:27.297Z,36.70
2019-04-25T09:31:17.495Z,37.70
2019-04-25T09:34:08.728Z,36.80
2019-04-25T09:36:58.692Z,35.70
2019-04-25T09:40:05.691Z,36.70
2019-04-25T09:42:55.831Z,35.20
2019-04-25T09:45:58.491Z,33.10
2019-04-25T09:48:57.178Z,35.70
2019-04-25T09:51:59.451Z,39.40
2019-04-25T09:54:55.539Z,40.40
2019-04-25T09:57:54.739Z,39.20
2019-04-25T10:00:47.775Z,37.70
2019-04-25T10:03:38.596Z,37.90
2019-04-25T10:06:29.851Z,38.50
2019-04-25T10:09:20.251Z,38.60
2019-04-25T10:12:10.256Z,38.20
2019-04-25T10:15:14.316Z,37.90
2019-04-25T10:18:04.233Z,37.10
2019-04-25T10:20:54.413Z,37.40
2019-04-25T10:23:45.598Z,34.20
2019-04-25T10:26:37.650Z,34.40
2019-04-25T10:29:39.325Z,32.30
2019-04-25T10:32:20.112Z,31.60
2019-04-25T10:35:09.713Z,31.80
2019-04-25T10:38:01.052Z,31.00
2019-04-25T10:40:51.292Z,30.40
2019-04-25T10:43:41.806Z,31.20
2019-04-25T10:46:31.853Z,30.10
2019-04-25T10:49:23.563Z,30.60
2019-04-25T10:52:13.983Z,29.50
2019-04-25T10:55:04.833Z,30.00
2019-04-25T10:57:55.330Z,28.80
2019-04-25T11:00:50.652Z,29.70
2019-04-25T11:03:54.441Z,29.30
2019-04-25T11:06:45.622Z,29.60
2019-04-25T11:09:36.097Z,29.40
2019-04-25T11:12:26.392Z,29.30
2019-04-25T11:15:17.191Z,28.20
2019-04-25T11:18:06.892Z,28.10
2019-04-25T11:20:57.352Z,29.90
2019-04-25T11:23:49.120Z,29.70
2019-04-25T11:26:40.563Z,30.70
2019-04-25T11:29:32.012Z,30.10
2019-04-25T11:32:25.732Z,31.80
2019-04-25T11:35:16.267Z,31.10
2019-04-25T11:38:08.731Z,31.60
2019-04-25T11:41:08.891Z,32.80
2019-04-25T11:44:00.451Z,33.40
2019-04-25T11:46:50.431Z,33.00
2019-04-25T11:49:42.099Z,34.10
2019-04-25T11:52:33.610Z,34.00
2019-04-25T11:55:23.918Z,35.00
2019-04-25T11:58:14.626Z,32.80
2019-04-25T12:01:06.332Z,32.60
2019-04-25T12:03:56.773Z,31.10
2019-04-25T12:06:47.583Z,31.50
2019-04-25T12:09:37.472Z,30.90
2019-04-25T12:12:27.578Z,31.30
2019-04-25T12:15:17.751Z,31.10
2019-04-25T12:18:08.292Z,30.40
2019-04-25T12:20:58.972Z,31.20
2019-04-25T12:23:49.252Z,30.10
2019-04-25T12:26:39.431Z,31.60
2019-04-25T12:29:29.555Z,31.10
2019-04-25T12:32:20.191Z,31.50
2019-04-25T12:35:09.912Z,33.20
2019-04-25T12:38:00.731Z,31.70
2019-04-25T12:40:52.648Z,32.90
2019-04-25T12:43:48.831Z,33.00
2019-04-25T12:46:43.519Z,32.40
2019-04-25T12:49:34.552Z,32.30
2019-04-25T12:52:24.667Z,30.90
2019-04-25T12:55:14.855Z,31.50
2019-04-25T12:58:05.861Z,29.90
2019-04-25T13:00:59.702Z,30.00
2019-04-25T13:03:48.090Z,30.20
2019-04-25T13:06:38.251Z,31.50
2019-04-25T13:09:29.031Z,31.90
2019-04-25T13:12:20.033Z,31.40
2019-04-25T13:15:11.439Z,31.30
2019-04-25T13:18:00.894Z,31.50
2019-04-25T13:20:51.599Z,31.70
2019-04-25T13:23:42.265Z,32.50
2019-04-25T13:26:36.552Z,32.40
2019-04-25T13:29:37.233Z,32.80
2019-04-25T13:32:35.612Z,32.30
2019-04-25T13:35:29.373Z,32.50
2019-04-25T13:38:19.293Z,32.70
2019-04-25T13:41:09.554Z,31.70
2019-04-25T13:44:00.899Z,32.20
2019-04-25T13:46:53.195Z,31.60
2019-04-25T13:49:43.153Z,31.30
2019-04-25T13:52:35.802Z,31.60
2019-04-25T13:55:25.911Z,32.10
2019-04-25T13:58:15.776Z,32.20
2019-04-25T14:01:13.292Z,31.70
2019-04-25T14:03:58.851Z,32.20
2019-04-25T14:06:49.051Z,33.00
2019-04-25T14:09:39.611Z,33.10
2019-04-25T14:12:30.369Z,34.60
2019-04-25T14:15:24.897Z,33.70
2019-04-25T14:18:33.353Z,34.40
2019-04-25T14:21:24.819Z,35.20
2019-04-25T14:24:20.685Z,35.10
2019-04-25T14:27:07.192Z,35.30
2019-04-25T14:29:57.003Z,34.60
2019-04-25T14:32:46.832Z,35.20
2019-04-25T14:35:37.751Z,35.00
2019-04-25T14:38:28.452Z,34.70
2019-04-25T14:41:18.811Z,33.30
2019-04-25T14:44:09.691Z,32.50
2019-04-25T14:47:00.811Z,31.60
2019-04-25T14:49:51.471Z,32.00
2019-04-25T14:52:41.691Z,31.60
2019-04-25T14:55:56.719Z,31.30
2019-04-25T14:58:47.109Z,31.70
2019-04-25T15:01:44.600Z,30.90
2019-04-25T15:04:30.103Z,31.00
2019-04-25T15:07:20.392Z,31.00
2019-04-25T15:10:11.045Z,30.90
2019-04-25T15:13:01.232Z,31.00
2019-04-25T15:15:51.777Z,30.70
2019-04-25T15:18:46.693Z,31.90
2019-04-25T15:21:33.985Z,32.10
2019-04-25T15:24:25.075Z,32.40
2019-04-25T15:27:15.527Z,32.30
2019-04-25T15:30:07.455Z,31.70
2019-04-25T15:32:57.154Z,31.30
2019-04-25T15:35:56.518Z,31.30
2019-04-25T15:38:55.133Z,31.40
2019-04-25T15:41:56.892Z,31.70
2019-04-25T15:45:04.019Z,31.30
2019-04-25T15:47:55.132Z,31.10
2019-04-25T15:50:44.807Z,30.90
2019-04-25T15:53:35.631Z,31.40
2019-04-25T15:56:25.672Z,30.70
2019-04-25T15:59:16.047Z,30.80
2019-04-25T16:02:08.614Z,31.30
2019-04-25T16:04:58.951Z,31.60
2019-04-25T16:07:49.271Z,31.90
2019-04-25T16:10:38.972Z,32.20
2019-04-25T16:13:28.992Z,33.20
2019-04-25T16:16:18.672Z,33.80
2019-04-25T16:19:09.306Z,33.90
2019-04-25T16:21:58.991Z,34.10
2019-04-25T16:24:49.194Z,34.10
2019-04-25T16:27:39.253Z,35.20
2019-04-25T16:30:32.999Z,36.00
2019-04-25T16:33:23.269Z,37.40
2019-04-25T16:36:14.396Z,39.10
2019-04-25T16:39:05.532Z,40.10
2019-04-25T16:41:56.732Z,41.40
2019-04-25T16:44:47.452Z,43.50
2019-04-25T16:47:37.612Z,44.80
2019-04-25T16:50:27.331Z,45.90
2019-04-25T16:53:17.079Z,46.80
2019-04-25T16:56:07.114Z,47.80
2019-04-25T16:58:57.265Z,48.40
2019-04-25T17:01:48.012Z,48.90
2019-04-25T17:04:38.236Z,49.50
2019-04-25T17:07:30.329Z,49.90
2019-04-25T17:10:20.747Z,50.20
2019-04-25T17:13:10.711Z,50.50
2019-04-25T17:16:17.952Z,50.70
2019-04-25T17:19:11.092Z,51.50
2019-04-25T17:22:09.692Z,51.80
2019-04-25T17:24:59.794Z,52.00
2019-04-25T17:27:49.573Z,52.00
2019-04-25T17:30:42.145Z,52.00
2019-04-25T17:33:48.131Z,52.50
2019-04-25T17:36:49.052Z,52.80
2019-04-25T17:39:40.891Z,53.40
2019-04-25T17:42:30.512Z,53.80
2019-04-25T17:45:24.950Z,54.00
2019-04-25T17:48:15.057Z,54.30
2019-04-25T17:51:05.369Z,54.80
2019-04-25T17:53:55.882Z,55.20
2019-04-25T17:56:47.312Z,55.50
2019-04-25T17:59:38.012Z,56.00
2019-04-25T18:02:29.372Z,56.40
2019-04-25T18:05:20.412Z,57.00
2019-04-25T18:08:10.692Z,57.40
2019-04-25T18:11:00.871Z,57.90
2019-04-25T18:13:50.371Z,58.10
2019-04-25T18:16:44.809Z,59.80
2019-04-25T18:19:42.606Z,59.50
2019-04-25T18:22:57.767Z,59.90
2019-04-25T18:26:15.794Z,60.10
2019-04-25T18:29:11.231Z,60.60
2019-04-25T18:32:02.241Z,61.00
2019-04-25T18:35:07.538Z,61.60
2019-04-25T18:38:16.732Z,62.00
2019-04-25T18:41:21.371Z,63.00
2019-04-25T18:44:11.125Z,63.10
2019-04-25T18:47:01.536Z,63.30
2019-04-25T18:49:52.591Z,63.80
2019-04-25T18:53:04.436Z,64.20
2019-04-25T18:56:04.514Z,64.40
2019-04-25T18:59:23.632Z,64.80
2019-04-25T19:02:39.764Z,65.20
2019-04-25T19:05:50.077Z,66.10
2019-04-25T19:08:40.881Z,66.30
2019-04-25T19:11:31.034Z,66.90
2019-04-25T19:14:21.066Z,67.40
2019-04-25T19:17:14.974Z,67.40
2019-04-25T19:20:05.709Z,67.70
2019-04-25T19:22:56.091Z,67.90
2019-04-25T19:25:46.335Z,68.20
2019-04-25T19:28:39.973Z,68.30
2019-04-25T19:31:32.972Z,68.50
2019-04-25T19:34:25.391Z,68.70
2019-04-25T19:37:16.991Z,69.10
2019-04-25T19:40:45.971Z,69.50
2019-04-25T19:43:53.351Z,70.10
2019-04-25T19:46:47.003Z,70.10
2019-04-25T19:49:37.751Z,70.30
2019-04-25T19:52:29.480Z,70.50
2019-04-25T19:55:19.077Z,71.00
2019-04-25T19:58:09.356Z,71.30
2019-04-25T20:00:59.991Z,70.20
2019-04-25T20:03:58.624Z,68.80
2019-04-25T20:07:22.773Z,67.00
2019-04-25T20:10:36.792Z,66.30
2019-04-25T20:13:27.451Z,66.10
2019-04-25T20:16:19.472Z,66.00
2019-04-25T20:19:09.569Z,65.50
2019-04-25T20:22:00.733Z,65.70
2019-04-25T20:24:52.525Z,65.90
2019-04-25T20:27:44.251Z,65.50
2019-04-25T20:30:34.984Z,65.50
2019-04-25T20:33:24.812Z,65.00
2019-04-25T20:36:17.954Z,65.20
2019-04-25T20:39:07.904Z,64.90
2019-04-25T20:41:59.212Z,64.80
2019-04-25T20:44:49.584Z,64.90
2019-04-25T20:47:40.891Z,64.70
2019-04-25T20:50:31.771Z,64.60
2019-04-25T20:53:22.331Z,64.40
2019-04-25T20:56:12.342Z,64.90
2019-04-25T20:59:02.186Z,64.70
2019-04-25T21:01:53.360Z,64.70
2019-04-25T21:04:43.931Z,65.10
2019-04-25T21:07:34.171Z,65.30
2019-04-25T21:10:24.012Z,65.30
2019-04-25T21:13:18.952Z,65.50
2019-04-25T21:16:30.178Z,66.00
2019-04-25T21:19:24.832Z,66.90
2019-04-25T21:22:15.454Z,67.10
2019-04-25T21:25:06.013Z,67.50
2019-04-25T21:27:56.708Z,67.10
2019-04-25T21:30:46.611Z,67.00
2019-04-25T21:33:36.851Z,67.10
2019-04-25T21:36:26.973Z,67.50
2019-04-25T21:39:24.792Z,66.90
2019-04-25T21:42:26.951Z,66.90
2019-04-25T21:45:17.531Z,67.30
2019-04-25T21:48:09.055Z,67.40
2019-04-25T21:51:01.094Z,66.00
2019-04-25T21:53:50.391Z,64.50
2019-04-25T21:56:40.771Z,63.80
2019-04-25T21:59:31.312Z,63.30
2019-04-25T22:02:22.092Z,63.00
2019-04-25T22:05:13.720Z,62.40
2019-04-25T22:08:04.793Z,61.70
2019-04-25T22:10:55.979Z,61.50
2019-04-25T22:13:46.331Z,60.90
2019-04-25T22:16:36.731Z,60.90
2019-04-25T22:19:27.271Z,61.00
2019-04-25T22:22:17.391Z,60.50
2019-04-25T22:25:09.853Z,59.60
2019-04-25T22:27:59.771Z,60.30
2019-04-25T22:30:54.171Z,60.30
2019-04-25T22:34:06.152Z,60.20
2019-04-25T22:36:58.563Z,59.90
2019-04-25T22:39:50.050Z,59.80
2019-04-25T22:42:41.151Z,60.00
2019-04-25T22:45:31.451Z,59.40
2019-04-25T22:48:26.610Z,59.90
2019-04-25T22:51:17.854Z,59.80
2019-04-25T22:54:09.488Z,59.90
2019-04-25T22:57:00.076Z,59.80
2019-04-25T22:59:51.228Z,59.90
2019-04-25T23:02:50.194Z,59.90
2019-04-25T23:05:43.758Z,60.00
2019-04-25T23:08:34.011Z,60.30
2019-04-25T23:11:24.552Z,60.00
2019-04-25T23:14:15.131Z,60.00
2019-04-25T23:17:05.270Z,60.20
2019-04-25T23:19:55.494Z,60.30
2019-04-25T23:22:45.731Z,60.50
2019-04-25T23:25:54.733Z,60.80
2019-04-25T23:28:46.263Z,61.00
2019-04-25T23:31:37.151Z,61.10
2019-04-25T23:34:27.572Z,61.20
2019-04-25T23:37:17.852Z,61.30
2019-04-25T23:40:09.531Z,62.20
2019-04-25T23:42:59.457Z,63.50
2019-04-25T23:45:49.211Z,63.60
2019-04-25T23:48:39.451Z,64.00
2019-04-25T23:51:29.893Z,64.50
2019-04-25T23:54:20.250Z,65.30
2019-04-25T23:57:09.759Z,65.40
2019-04-25T23:59:59.651Z,66.00
